Time;durP1;ratioP1;P1;durP2;ratioP2;P2;SDS_P1;SDS_P2;PMS_P1;PMS_P2;Temp;Humidity;BMP_temperature;BMP_pressure;BME280_temperature;BME280_humidity;BME280_pressure;Samples;Min_cycle;Max_cycle;Signal;HPM_P1;HPM_P2
2022/03/09 00:00:06;;;;;;;30.40;12.40;;;;;;;-0.46;84.96;100165.44;103566;1301;24282;-29
2022/03/09 00:02:31;;;;;;;27.10;9.90;;;;;;;-0.41;84.76;100162.99;103414;1302;24193;-27
2022/03/09 00:04:57;;;;;;;27.50;11.30;;;;;;;-0.40;84.35;100162.55;103563;1300;24295;-29
2022/03/09 00:07:23;;;;;;;36.30;13.80;;;;;;;-0.41;84.42;100159.85;103565;1300;24364;-29
2022/03/09 00:09:49;;;;;;;31.70;14.10;;;;;;;-0.37;84.42;100163.61;103597;1301;24249;-28
2022/03/09 00:12:15;;;;;;;27.50;11.10;;;;;;;-0.42;85.17;100160.24;103588;1300;22497;-28
2022/03/09 00:14:41;;;;;;;22.00;11.30;;;;;;;-0.37;85.61;100158.32;103583;1301;24288;-25
2022/03/09 00:17:07;;;;;;;27.00;14.30;;;;;;;-0.33;84.69;100155.73;103539;1302;22850;-25
2022/03/09 00:19:32;;;;;;;22.00;12.20;;;;;;;-0.31;84.12;100153.30;103561;1303;24224;-24
2022/03/09 00:21:58;;;;;;;24.70;11.20;;;;;;;-0.33;84.91;100151.01;103545;1301;24194;-25
2022/03/09 00:24:24;;;;;;;27.80;12.90;;;;;;;-0.30;83.87;100152.38;103590;1303;24237;-29
2022/03/09 00:26:49;;;;;;;20.00;9.90;;;;;;;-0.34;83.96;100149.48;103482;1303;24318;-26
2022/03/09 00:29:15;;;;;;;20.50;9.30;;;;;;;-0.31;84.76;100148.91;103529;1302;24256;-27
2022/03/09 00:31:41;;;;;;;25.10;9.30;;;;;;;-0.24;85.20;100145.60;103507;1300;24387;-26
2022/03/09 00:34:07;;;;;;;19.20;9.30;;;;;;;-0.16;84.68;100146.27;103481;1302;24246;-27
2022/03/09 00:36:32;;;;;;;17.00;9.00;;;;;;;-0.10;84.96;100150.19;103585;1301;22711;-31
2022/03/09 00:38:58;;;;;;;35.10;12.50;;;;;;;-0.03;84.83;100147.40;103606;1302;24342;-31
2022/03/09 00:41:24;;;;;;;20.90;9.00;;;;;;;-0.01;83.93;100149.77;103517;1303;24344;-26
2022/03/09 00:43:50;;;;;;;18.50;7.40;;;;;;;-0.03;83.84;100147.59;103542;1300;24357;-29
2022/03/09 00:46:15;;;;;;;15.50;7.90;;;;;;;-0.02;84.36;100145.08;103615;1301;24237;-28
2022/03/09 00:48:41;;;;;;;26.40;8.70;;;;;;;-0.01;84.26;100142.73;103723;1300;24209;-30
2022/03/09 00:51:07;;;;;;;21.90;6.80;;;;;;;-0.05;84.15;100137.21;103538;1302;24237;-26
2022/03/09 00:53:33;;;;;;;31.80;9.10;;;;;;;-0.01;84.74;100134.25;103672;1300;22499;-28
2022/03/09 00:55:58;;;;;;;22.20;11.50;;;;;;;0.08;83.58;100130.79;103493;1300;24316;-26
2022/03/09 00:58:24;;;;;;;27.40;9.30;;;;;;;-0.02;83.50;100130.48;103494;1300;24285;-26
2022/03/09 01:00:50;;;;;;;29.60;10.20;;;;;;;-0.07;84.00;100129.75;103598;1300;24253;-27
2022/03/09 01:03:16;;;;;;;19.90;10.90;;;;;;;-0.04;83.75;100129.16;103616;1303;24173;-26
2022/03/09 01:05:41;;;;;;;37.70;13.70;;;;;;;-0.03;83.69;100129.32;103570;1300;24460;-29
2022/03/09 01:08:07;;;;;;;40.20;13.80;;;;;;;-0.14;83.95;100131.31;103543;1301;24298;-25
2022/03/09 01:10:33;;;;;;;24.20;11.00;;;;;;;-0.20;83.96;100129.30;103620;1300;24247;-28
2022/03/09 01:12:59;;;;;;;21.60;9.90;;;;;;;-0.19;83.46;100129.95;103574;1301;24216;-27
2022/03/09 01:15:25;;;;;;;29.90;10.10;;;;;;;-0.23;83.37;100126.02;103533;1300;24298;-29
2022/03/09 01:17:51;;;;;;;28.30;9.60;;;;;;;-0.29;84.05;100123.59;103540;1302;24211;-29
2022/03/09 01:20:16;;;;;;;22.50;10.30;;;;;;;-0.35;84.22;100121.03;103517;1300;22689;-29
2022/03/09 01:22:42;;;;;;;26.20;9.70;;;;;;;-0.34;83.98;100117.27;103548;1300;24660;-26
2022/03/09 01:25:08;;;;;;;37.40;10.60;;;;;;;-0.30;83.87;100115.58;103471;1303;24447;-29
2022/03/09 01:27:34;;;;;;;23.10;9.40;;;;;;;-0.27;84.20;100117.66;103588;1300;24326;-28
2022/03/09 01:30:00;;;;;;;32.00;9.40;;;;;;;-0.26;84.43;100113.02;103528;1302;24270;-26
2022/03/09 01:32:26;;;;;;;15.40;6.50;;;;;;;-0.28;84.58;100115.61;103509;1300;24366;-28
2022/03/09 01:34:52;;;;;;;24.10;11.00;;;;;;;-0.04;83.72;100108.74;103540;1300;24215;-25
2022/03/09 01:37:17;;;;;;;23.50;9.30;;;;;;;-0.14;84.28;100109.81;103509;1300;24660;-28
2022/03/09 01:39:43;;;;;;;33.70;8.90;;;;;;;-0.09;84.32;100103.16;103439;1302;24305;-25
2022/03/09 01:42:12;;;;;;;19.00;9.90;;;;;;;-0.13;84.73;100101.53;103581;1302;24351;-27
2022/03/09 01:44:38;;;;;;;16.40;4.80;;;;;;;-0.13;84.58;100100.44;103598;1301;22513;-26
2022/03/09 01:47:04;;;;;;;18.60;8.10;;;;;;;-0.18;85.21;100097.96;103631;1302;22512;-28
2022/03/09 01:49:29;;;;;;;25.40;11.00;;;;;;;-0.16;85.30;100103.13;103544;1303;24298;-30
2022/03/09 01:51:57;;;;;;;27.30;11.30;;;;;;;-0.07;85.11;100102.82;103554;1303;22767;-28
2022/03/09 01:54:23;;;;;;;16.20;6.60;;;;;;;-0.12;85.33;100100.05;103558;1300;26119;-30
2022/03/09 01:56:49;;;;;;;19.60;9.20;;;;;;;0.07;84.75;100095.48;103453;1301;24262;-26
2022/03/09 01:59:15;;;;;;;23.80;9.90;;;;;;;0.05;84.78;100095.64;103536;1300;24214;-29
2022/03/09 02:01:41;;;;;;;24.30;9.30;;;;;;;-0.03;85.19;100093.02;103659;1300;24225;-30
2022/03/09 02:04:07;;;;;;;33.40;12.00;;;;;;;0.03;85.27;100090.70;103610;1301;24409;-28
2022/03/09 02:06:34;;;;;;;32.60;10.20;;;;;;;0.11;84.99;100089.04;103577;1300;24218;-26
2022/03/09 02:11:31;;;;;;;24.60;11.10;;;;;;;0.07;85.16;100079.98;103616;1302;24259;-29
2022/03/09 02:13:57;;;;;;;25.60;12.30;;;;;;;0.10;85.31;100071.80;103574;1300;22502;-26
2022/03/09 02:16:22;;;;;;;23.80;9.60;;;;;;;0.05;85.63;100073.80;103512;1302;24331;-26
2022/03/09 02:18:48;;;;;;;36.00;14.50;;;;;;;0.17;85.34;100074.13;103418;1303;24201;-28
2022/03/09 02:21:15;;;;;;;29.60;12.00;;;;;;;0.15;85.11;100065.33;103565;1302;24255;-29
2022/03/09 02:23:41;;;;;;;18.50;7.00;;;;;;;0.09;85.67;100065.02;103572;1302;24429;-26
2022/03/09 02:26:06;;;;;;;17.20;8.50;;;;;;;0.28;84.82;100062.40;103518;1302;24195;-29
2022/03/09 02:28:36;;;;;;;34.80;10.20;;;;;;;0.17;85.15;100061.42;103568;1300;24294;-25
2022/03/09 02:31:02;;;;;;;25.60;13.20;;;;;;;0.33;84.91;100056.02;103555;1300;22715;-31
2022/03/09 02:33:28;;;;;;;19.70;8.80;;;;;;;0.30;84.30;100052.21;103600;1300;24251;-26
2022/03/09 02:35:53;;;;;;;16.20;8.60;;;;;;;0.28;84.38;100051.13;103572;1300;24223;-25
2022/03/09 02:38:19;;;;;;;14.10;5.70;;;;;;;0.26;84.08;100049.17;103605;1301;24289;-27
2022/03/09 02:40:44;;;;;;;22.90;11.00;;;;;;;0.25;84.25;100048.32;103534;1303;24195;-29
2022/03/09 02:43:10;;;;;;;37.60;12.80;;;;;;;0.15;84.08;100047.69;103559;1301;24541;-32
2022/03/09 02:45:36;;;;;;;18.30;7.40;;;;;;;0.13;84.06;100047.13;103616;1300;24335;-26
2022/03/09 02:48:02;;;;;;;20.40;7.40;;;;;;;0.15;83.73;100047.20;103698;1300;22952;-29
2022/03/09 02:50:27;;;;;;;15.10;7.60;;;;;;;0.30;83.10;100041.63;103702;1300;24232;-28
2022/03/09 02:52:53;;;;;;;16.80;7.80;;;;;;;0.19;82.99;100038.40;103506;1300;24313;-27
2022/03/09 02:55:19;;;;;;;18.80;9.00;;;;;;;0.19;83.36;100035.08;103665;1300;22734;-26
2022/03/09 02:57:44;;;;;;;19.60;9.80;;;;;;;0.23;83.32;100036.56;103529;1302;24249;-30
2022/03/09 03:00:11;;;;;;;22.40;8.50;;;;;;;0.29;82.73;100034.14;103681;1300;24300;-25
2022/03/09 03:02:37;;;;;;;10.70;4.70;;;;;;;0.02;84.12;100038.11;103527;1300;24292;-25
2022/03/09 03:05:03;;;;;;;11.80;5.90;;;;;;;0.03;84.19;100035.36;103621;1300;22504;-29
2022/03/09 03:07:29;;;;;;;25.10;11.70;;;;;;;-0.03;84.54;100041.08;103664;1300;24353;-27
2022/03/09 03:09:56;;;;;;;27.90;11.40;;;;;;;-0.18;85.28;100046.41;103701;1300;24259;-25
2022/03/09 03:12:22;;;;;;;31.90;12.40;;;;;;;-0.24;85.76;100046.86;103661;1300;24367;-29
2022/03/09 03:14:47;;;;;;;30.80;10.80;;;;;;;-0.28;85.74;100049.61;103590;1301;24202;-29
2022/03/09 03:17:14;;;;;;;22.20;11.50;;;;;;;-0.41;86.20;100057.59;103539;1300;22510;-23
2022/03/09 03:19:39;;;;;;;19.90;11.80;;;;;;;-0.51;86.75;100060.94;103560;1300;24269;-29
2022/03/09 03:22:05;;;;;;;35.90;14.30;;;;;;;-0.56;86.72;100064.11;103624;1300;24458;-26
2022/03/09 03:24:31;;;;;;;28.10;12.70;;;;;;;-0.68;87.30;100065.02;103537;1300;24250;-26
2022/03/09 03:26:57;;;;;;;34.70;13.80;;;;;;;-0.74;87.39;100069.08;103499;1303;22724;-28
2022/03/09 03:29:22;;;;;;;31.70;15.00;;;;;;;-0.79;87.47;100067.90;103779;1300;22613;-29
2022/03/09 03:31:48;;;;;;;28.80;12.70;;;;;;;-0.80;87.58;100070.37;103659;1299;24208;-28
2022/03/09 03:34:14;;;;;;;31.60;11.90;;;;;;;-0.73;87.11;100073.79;103600;1300;24225;-28
2022/03/09 03:36:40;;;;;;;32.10;13.10;;;;;;;-0.76;87.06;100074.14;103557;1300;24268;-29
2022/03/09 03:39:05;;;;;;;23.90;12.20;;;;;;;-0.80;87.15;100073.59;103643;1300;24324;-26
2022/03/09 03:41:31;;;;;;;19.10;9.90;;;;;;;-0.83;87.46;100078.19;103530;1303;24214;-30
2022/03/09 03:43:58;;;;;;;32.60;12.30;;;;;;;-0.82;87.12;100073.85;103614;1302;24392;-28
2022/03/09 03:46:24;;;;;;;22.90;12.30;;;;;;;-0.71;86.51;100076.08;103606;1303;24238;-25
2022/03/09 03:48:49;;;;;;;25.60;11.80;;;;;;;-0.66;86.15;100077.88;103548;1300;24192;-26
2022/03/09 03:51:15;;;;;;;28.60;12.30;;;;;;;-0.63;85.93;100076.77;103488;1302;24340;-28
2022/03/09 03:53:41;;;;;;;35.40;13.40;;;;;;;-0.69;86.49;100078.04;103460;1302;24298;-29
2022/03/09 03:56:06;;;;;;;33.80;10.60;;;;;;;-0.72;86.65;100080.21;103451;1302;24298;-29
2022/03/09 03:58:32;;;;;;;23.00;11.70;;;;;;;-0.72;86.47;100089.15;103565;1300;24274;-29
2022/03/09 04:00:58;;;;;;;26.80;12.20;;;;;;;-0.71;86.58;100087.38;103544;1302;24211;-26
2022/03/09 04:03:24;;;;;;;29.40;11.60;;;;;;;-0.72;86.80;100089.90;103530;1302;22584;-25
2022/03/09 04:05:49;;;;;;;29.80;12.00;;;;;;;-0.44;85.43;100085.27;103653;1301;24244;-25
2022/03/09 04:08:15;;;;;;;26.40;11.20;;;;;;;-0.35;84.69;100083.55;103558;1301;24345;-28
2022/03/09 04:10:41;;;;;;;23.80;9.50;;;;;;;-0.29;84.10;100083.30;103453;1300;24494;-29
2022/03/09 04:13:07;;;;;;;40.40;12.00;;;;;;;-0.20;83.77;100074.92;103028;1303;650882;-27
2022/03/09 04:15:33;;;;;;;28.30;7.80;;;;;;;-0.30;83.74;100076.11;103448;1302;24253;-26
2022/03/09 04:17:58;;;;;;;19.60;8.90;;;;;;;-0.20;83.50;100076.65;103559;1300;24253;-29
2022/03/09 04:20:24;;;;;;;22.60;9.50;;;;;;;-0.11;82.98;100078.99;103573;1300;22693;-25
2022/03/09 04:22:50;;;;;;;22.40;8.20;;;;;;;-0.17;83.19;100077.69;103550;1300;24211;-30
2022/03/09 04:25:16;;;;;;;23.30;8.90;;;;;;;-0.19;83.39;100076.61;103578;1300;24300;-26
2022/03/09 04:27:42;;;;;;;26.60;11.60;;;;;;;-0.20;83.35;100079.15;103593;1303;24375;-29
2022/03/09 04:30:08;;;;;;;25.50;11.60;;;;;;;-0.31;83.87;100079.75;103563;1300;24321;-29
2022/03/09 04:32:34;;;;;;;25.60;12.90;;;;;;;-0.25;83.53;100082.81;103554;1300;24257;-28
2022/03/09 04:35:01;;;;;;;16.40;7.90;;;;;;;-0.32;83.85;100078.55;103645;1300;23000;-29
2022/03/09 04:37:30;;;;;;;28.50;13.60;;;;;;;-0.32;83.81;100079.46;103432;1300;24246;-24
2022/03/09 04:39:58;;;;;;;26.20;12.10;;;;;;;-0.37;84.12;100078.61;103599;1300;22490;-30
2022/03/09 04:42:24;;;;;;;28.00;13.80;;;;;;;-0.32;84.09;100077.33;103543;1302;24313;-29
2022/03/09 04:44:52;;;;;;;30.40;13.10;;;;;;;-0.27;83.79;100078.23;103609;1300;24246;-30
2022/03/09 04:47:19;;;;;;;26.70;12.80;;;;;;;-0.30;83.92;100077.05;103523;1300;22747;-26
2022/03/09 04:49:45;;;;;;;23.40;11.40;;;;;;;-0.42;84.44;100075.13;103560;1302;22629;-26
2022/03/09 04:52:10;;;;;;;36.60;13.80;;;;;;;-0.41;84.80;100080.52;103578;1300;24257;-29
2022/03/09 04:54:36;;;;;;;33.70;12.20;;;;;;;-0.39;85.31;100081.70;103513;1300;24273;-28
2022/03/09 04:57:02;;;;;;;19.90;10.20;;;;;;;-0.36;85.11;100085.54;103505;1300;24310;-27
2022/03/09 04:59:28;;;;;;;25.10;10.70;;;;;;;-0.30;84.95;100085.48;103570;1300;24298;-26
2022/03/09 05:01:54;;;;;;;43.50;16.00;;;;;;;-0.30;84.81;100078.13;103504;1300;24195;-26
2022/03/09 05:04:19;;;;;;;30.90;14.20;;;;;;;-0.25;85.07;100077.05;103524;1300;24297;-26
2022/03/09 05:06:45;;;;;;;31.10;10.40;;;;;;;-0.28;85.04;100073.20;103560;1300;24335;-29
2022/03/09 05:09:11;;;;;;;27.90;7.20;;;;;;;-0.24;85.12;100074.36;103465;1300;24347;-26
2022/03/09 05:11:37;;;;;;;49.20;18.00;;;;;;;-0.21;84.95;100071.14;103532;1300;24226;-29
2022/03/09 05:14:03;;;;;;;24.50;13.40;;;;;;;-0.31;85.08;100075.15;103569;1302;24341;-25
2022/03/09 05:16:28;;;;;;;34.50;14.30;;;;;;;-0.32;85.42;100078.77;103621;1300;24340;-30
2022/03/09 05:18:54;;;;;;;40.90;16.50;;;;;;;-0.41;86.02;100084.20;103568;1300;24224;-29
2022/03/09 05:21:20;;;;;;;31.10;13.90;;;;;;;-0.41;86.31;100081.39;103581;1301;24249;-24
2022/03/09 05:23:46;;;;;;;41.40;16.40;;;;;;;-0.43;86.33;100087.10;103568;1300;22504;-29
2022/03/09 05:26:12;;;;;;;29.50;14.50;;;;;;;-0.49;86.49;100090.34;103621;1300;24175;-26
2022/03/09 05:28:37;;;;;;;29.50;14.30;;;;;;;-0.50;86.48;100098.48;103610;1300;22604;-26
2022/03/09 05:31:03;;;;;;;39.00;14.90;;;;;;;-0.45;86.82;100100.29;103490;1302;22984;-26
2022/03/09 05:33:29;;;;;;;42.90;20.10;;;;;;;-0.44;86.89;100102.52;103707;1300;24229;-28
2022/03/09 05:35:54;;;;;;;51.70;18.90;;;;;;;-0.45;86.78;100105.39;103569;1300;24246;-28
2022/03/09 05:38:20;;;;;;;36.40;17.40;;;;;;;-0.41;86.73;100111.63;103604;1300;24997;-25
2022/03/09 05:40:46;;;;;;;42.20;17.30;;;;;;;-0.39;86.58;100113.25;103628;1300;24302;-30
2022/03/09 05:43:12;;;;;;;42.20;17.60;;;;;;;-0.43;86.52;100115.98;103585;1298;24366;-28
2022/03/09 05:45:38;;;;;;;34.20;15.70;;;;;;;-0.41;86.57;100117.23;103723;1300;24246;-26
2022/03/09 05:48:04;;;;;;;43.20;18.00;;;;;;;-0.38;86.49;100119.69;103664;1300;24308;-26
2022/03/09 05:50:30;;;;;;;36.60;16.50;;;;;;;-0.31;86.53;100118.27;103548;1302;24317;-28
2022/03/09 05:52:56;;;;;;;45.00;18.50;;;;;;;-0.25;86.42;100121.93;103577;1299;24192;-26
2022/03/09 05:55:22;;;;;;;41.90;18.70;;;;;;;-0.21;86.88;100123.76;103604;1300;24315;-26
2022/03/09 05:57:47;;;;;;;9.80;6.10;;;;;;;-0.14;86.28;100123.25;103726;1300;24212;-30
2022/03/09 06:00:14;;;;;;;20.00;8.70;;;;;;;-0.09;86.42;100127.80;103720;1299;24243;-28
2022/03/09 06:02:39;;;;;;;46.40;19.50;;;;;;;-0.02;86.34;100123.45;103772;1299;24368;-26
2022/03/09 06:05:06;;;;;;;50.60;15.50;;;;;;;0.01;86.20;100127.08;103678;1299;24275;-29
2022/03/09 06:07:32;;;;;;;51.30;19.60;;;;;;;0.07;86.05;100127.70;103622;1302;24258;-26
2022/03/09 06:09:58;;;;;;;47.90;17.70;;;;;;;0.13;85.87;100124.41;103533;1300;24453;-29
2022/03/09 06:12:24;;;;;;;30.50;13.90;;;;;;;0.22;85.59;100125.94;103702;1300;24189;-31
2022/03/09 06:14:50;;;;;;;55.80;15.10;;;;;;;0.15;85.83;100120.07;103672;1300;22718;-30
2022/03/09 06:17:16;;;;;;;35.30;16.50;;;;;;;0.22;85.61;100122.38;103544;1300;22626;-29
2022/03/09 06:19:41;;;;;;;54.40;18.10;;;;;;;0.25;85.57;100123.72;103596;1300;24993;-27
2022/03/09 06:22:07;;;;;;;47.20;18.70;;;;;;;0.18;85.35;100126.52;103560;1300;24208;-31
2022/03/09 06:24:33;;;;;;;40.10;14.00;;;;;;;0.22;85.68;100129.77;103646;1300;24288;-28
2022/03/09 06:26:59;;;;;;;44.80;14.50;;;;;;;0.21;85.40;100131.45;103634;1300;24294;-24
2022/03/09 06:29:24;;;;;;;50.50;20.30;;;;;;;0.18;85.49;100127.63;103534;1300;24233;-26
2022/03/09 06:31:50;;;;;;;31.30;13.90;;;;;;;0.30;85.17;100130.02;103642;1300;24221;-28
2022/03/09 06:34:16;;;;;;;51.30;18.20;;;;;;;0.27;84.97;100135.40;103718;1300;24361;-26
2022/03/09 06:36:44;;;;;;;33.00;13.10;;;;;;;0.18;85.40;100139.94;103565;1300;24351;-25
2022/03/09 06:39:12;;;;;;;30.70;14.60;;;;;;;0.27;85.39;100138.74;103681;1300;24344;-28
2022/03/09 06:41:40;;;;;;;44.60;16.20;;;;;;;0.33;85.17;100141.86;103737;1300;24341;-29
2022/03/09 06:44:06;;;;;;;36.50;14.70;;;;;;;0.32;85.48;100137.48;103709;1300;24260;-25
2022/03/09 06:46:33;;;;;;;45.60;18.60;;;;;;;0.44;84.62;100140.14;103507;1301;24286;-26
2022/03/09 06:48:59;;;;;;;40.00;16.60;;;;;;;0.35;84.63;100140.92;103628;1300;22511;-26
2022/03/09 06:51:25;;;;;;;34.90;14.60;;;;;;;0.51;84.43;100138.21;103489;1302;24227;-25
2022/03/09 06:53:50;;;;;;;36.50;16.30;;;;;;;0.46;84.35;100141.73;103582;1300;24404;-29
2022/03/09 06:56:18;;;;;;;45.00;18.30;;;;;;;0.58;84.26;100143.12;103704;1300;22502;-26
2022/03/09 06:58:45;;;;;;;38.60;18.50;;;;;;;0.67;83.55;100144.38;103699;1300;24371;-26
2022/03/09 07:01:11;;;;;;;47.90;18.40;;;;;;;0.62;83.78;100148.61;103600;1300;24212;-28
2022/03/09 07:03:37;;;;;;;35.10;18.80;;;;;;;0.62;84.02;100147.23;103675;1299;24237;-29
2022/03/09 07:06:03;;;;;;;50.90;17.50;;;;;;;0.67;83.58;100150.05;103518;1300;24245;-30
2022/03/09 07:08:29;;;;;;;40.10;16.70;;;;;;;0.83;83.34;100148.28;103590;1300;24326;-29
2022/03/09 07:10:55;;;;;;;34.40;15.60;;;;;;;0.90;83.16;100155.67;103502;1301;24225;-25
2022/03/09 07:13:21;;;;;;;37.90;16.80;;;;;;;1.05;82.59;100153.02;103704;1300;22611;-25
2022/03/09 07:15:47;;;;;;;52.90;19.90;;;;;;;1.27;82.07;100148.13;103831;1300;24206;-28
2022/03/09 07:18:12;;;;;;;33.20;13.90;;;;;;;1.29;81.81;100145.63;103666;1300;22496;-28
2022/03/09 07:20:40;;;;;;;41.00;17.60;;;;;;;1.44;81.60;100148.73;103614;1300;24401;-26
2022/03/09 07:23:06;;;;;;;42.60;17.00;;;;;;;1.62;81.37;100146.48;103685;1297;24340;-25
2022/03/09 07:25:32;;;;;;;26.90;13.50;;;;;;;1.80;81.67;100145.93;103612;1300;24336;-24
2022/03/09 07:27:57;;;;;;;49.90;17.30;;;;;;;2.05;79.90;100148.33;103594;1300;24230;-29
2022/03/09 07:30:23;;;;;;;44.40;17.40;;;;;;;2.25;80.43;100145.63;103605;1298;24298;-25
2022/03/09 07:32:49;;;;;;;37.00;17.30;;;;;;;2.44;78.67;100145.64;103626;1300;24328;-28
2022/03/09 07:35:15;;;;;;;25.50;11.40;;;;;;;2.60;78.58;100143.81;103511;1300;24272;-24
2022/03/09 07:37:40;;;;;;;34.50;17.50;;;;;;;2.96;77.81;100146.80;103459;1301;24337;-25
2022/03/09 07:40:07;;;;;;;42.90;17.30;;;;;;;3.07;75.71;100144.54;103621;1300;22701;-24
2022/03/09 07:42:33;;;;;;;46.80;14.30;;;;;;;3.25;76.37;100145.42;103610;1300;24368;-24
2022/03/09 07:45:00;;;;;;;45.10;15.00;;;;;;;3.73;73.28;100144.07;103515;1300;24288;-24
2022/03/09 07:47:27;;;;;;;27.80;11.40;;;;;;;3.63;73.24;100145.01;103628;1300;24211;-30
2022/03/09 07:49:53;;;;;;;20.50;9.10;;;;;;;3.76;69.77;100144.02;103567;1300;24249;-25
2022/03/09 07:52:19;;;;;;;26.40;10.50;;;;;;;4.06;69.54;100146.17;103626;1300;22730;-28
2022/03/09 07:54:44;;;;;;;20.50;11.70;;;;;;;4.44;68.75;100145.42;103561;1300;24219;-25
2022/03/09 07:57:10;;;;;;;18.00;9.90;;;;;;;4.60;68.06;100142.52;103362;1302;24303;-28
2022/03/09 07:59:36;;;;;;;32.10;10.90;;;;;;;4.81;67.98;100141.48;103465;1300;24223;-23
2022/03/09 08:02:02;;;;;;;20.10;9.30;;;;;;;5.12;66.36;100139.17;103546;1300;24345;-24
2022/03/09 08:04:28;;;;;;;15.10;8.60;;;;;;;5.10;63.81;100138.44;103528;1300;22592;-25
2022/03/09 08:06:54;;;;;;;19.60;9.20;;;;;;;5.36;62.89;100134.05;103622;1300;24218;-29
2022/03/09 08:09:20;;;;;;;13.40;7.70;;;;;;;5.81;62.89;100139.15;103700;1300;24277;-26
2022/03/09 08:11:46;;;;;;;17.60;7.10;;;;;;;5.94;60.96;100138.06;103414;1300;24405;-27
2022/03/09 08:14:12;;;;;;;18.70;7.10;;;;;;;6.11;59.74;100138.60;103462;1301;24246;-30
2022/03/09 08:16:38;;;;;;;14.20;7.50;;;;;;;6.37;59.15;100138.48;103564;1300;22715;-28
2022/03/09 08:19:04;;;;;;;13.40;5.80;;;;;;;6.40;57.11;100138.95;103547;1300;24298;-24
2022/03/09 08:21:30;;;;;;;8.90;6.00;;;;;;;6.24;57.16;100142.34;103610;1300;24249;-27
2022/03/09 08:23:56;;;;;;;17.90;9.20;;;;;;;6.09;55.24;100145.71;103502;1300;24213;-30
2022/03/09 08:26:21;;;;;;;12.50;7.50;;;;;;;6.04;55.24;100149.41;103604;1300;24358;-28
2022/03/09 08:28:47;;;;;;;19.60;8.80;;;;;;;6.12;55.24;100147.38;103545;1302;24263;-28
2022/03/09 08:31:13;;;;;;;13.90;8.70;;;;;;;5.76;54.73;100150.99;103540;1300;24219;-26
2022/03/09 08:33:38;;;;;;;12.80;8.30;;;;;;;5.48;54.95;100150.48;103542;1300;24218;-28
2022/03/09 08:36:05;;;;;;;14.10;7.10;;;;;;;5.77;55.49;100155.04;103557;1300;24281;-25
2022/03/09 08:38:30;;;;;;;17.60;8.50;;;;;;;5.92;55.85;100156.77;103624;1300;24245;-24
2022/03/09 08:40:56;;;;;;;13.20;8.00;;;;;;;6.06;54.41;100162.01;103642;1300;22506;-30
2022/03/09 08:43:22;;;;;;;9.30;6.00;;;;;;;5.94;54.67;100159.30;103456;1302;24320;-27
2022/03/09 08:45:48;;;;;;;14.10;6.90;;;;;;;5.92;55.05;100157.33;103495;1301;24306;-26
2022/03/09 08:48:15;;;;;;;10.50;7.20;;;;;;;6.02;55.41;100156.02;103507;1302;24253;-24
2022/03/09 08:50:42;;;;;;;11.30;7.60;;;;;;;6.36;54.78;100151.59;103588;1300;22632;-30
2022/03/09 08:53:08;;;;;;;12.20;7.70;;;;;;;6.58;54.57;100149.57;103486;1300;24330;-26
2022/03/09 08:55:34;;;;;;;13.30;8.40;;;;;;;6.63;54.33;100140.73;103543;1300;24247;-30
2022/03/09 08:58:00;;;;;;;9.50;6.60;;;;;;;6.26;53.59;100139.24;103572;1300;24211;-27
2022/03/09 09:00:26;;;;;;;19.00;9.20;;;;;;;6.39;54.20;100140.63;103600;1300;22639;-29
2022/03/09 09:02:52;;;;;;;15.20;8.90;;;;;;;6.73;53.75;100135.16;103547;1300;24783;-29
2022/03/09 09:05:19;;;;;;;13.80;7.80;;;;;;;7.23;53.98;100135.59;103527;1300;24224;-28
2022/03/09 09:07:45;;;;;;;14.40;8.50;;;;;;;6.80;53.13;100140.81;103352;1302;25348;-25
2022/03/09 09:10:10;;;;;;;9.50;7.30;;;;;;;6.36;53.56;100142.77;103536;1300;24248;-27
2022/03/09 09:12:36;;;;;;;11.40;7.50;;;;;;;6.37;53.90;100141.86;103399;1300;24177;-27
2022/03/09 09:15:02;;;;;;;11.30;8.70;;;;;;;6.58;53.27;100138.25;103509;1300;24141;-24
2022/03/09 09:17:29;;;;;;;12.90;6.40;;;;;;;6.84;54.58;100137.90;103496;1302;22743;-25
2022/03/09 09:19:54;;;;;;;14.50;9.30;;;;;;;7.27;53.07;100130.15;103494;1301;24316;-28
2022/03/09 09:22:20;;;;;;;12.10;7.50;;;;;;;7.69;51.65;100127.94;103574;1300;24210;-28
2022/03/09 09:24:46;;;;;;;14.70;7.60;;;;;;;7.41;51.17;100131.23;103560;1300;24316;-27
2022/03/09 09:27:11;;;;;;;19.60;9.60;;;;;;;7.46;51.26;100129.84;103592;1300;24224;-27
2022/03/09 09:29:37;;;;;;;8.40;5.70;;;;;;;7.48;51.26;100131.02;103535;1300;24169;-25
2022/03/09 09:32:03;;;;;;;11.60;7.40;;;;;;;7.46;51.25;100127.66;103545;1300;24840;-28
2022/03/09 09:34:29;;;;;;;9.90;6.20;;;;;;;7.20;50.66;100130.00;103546;1300;24291;-28
2022/03/09 09:36:55;;;;;;;10.30;6.80;;;;;;;7.54;51.43;100129.91;103558;1300;24211;-30
2022/03/09 09:39:21;;;;;;;17.70;7.80;;;;;;;7.68;51.61;100130.41;103532;1300;24223;-31
2022/03/09 09:41:48;;;;;;;12.60;6.70;;;;;;;8.17;50.98;100127.35;103550;1300;24199;-24
2022/03/09 09:44:14;;;;;;;15.30;8.50;;;;;;;8.30;49.06;100125.23;103598;1300;25339;-27
2022/03/09 09:46:41;;;;;;;10.30;6.70;;;;;;;8.23;49.06;100127.30;103531;1300;24375;-28
2022/03/09 09:49:09;;;;;;;9.10;5.40;;;;;;;8.51;48.79;100127.53;103435;1300;24223;-25
2022/03/09 09:51:37;;;;;;;10.30;6.00;;;;;;;8.39;48.68;100134.17;103540;1300;22977;-28
2022/03/09 09:54:05;;;;;;;8.00;5.80;;;;;;;8.54;47.72;100128.92;103581;1300;24338;-25
2022/03/09 09:56:34;;;;;;;12.10;6.50;;;;;;;8.00;48.39;100129.00;103583;1300;24037;-28
2022/03/09 09:58:59;;;;;;;11.40;6.90;;;;;;;9.07;47.58;100124.98;103438;1300;24219;-23
2022/03/09 10:01:25;;;;;;;9.80;6.20;;;;;;;8.66;46.62;100128.33;103457;1300;24246;-24
2022/03/09 10:03:50;;;;;;;9.50;5.50;;;;;;;8.51;47.41;100131.58;103513;1300;24370;-24
2022/03/09 10:06:16;;;;;;;7.60;5.00;;;;;;;8.34;46.21;100137.55;103465;1300;24403;-28
2022/03/09 10:08:45;;;;;;;11.40;6.40;;;;;;;7.97;47.82;100137.92;103530;1300;24216;-28
2022/03/09 10:11:11;;;;;;;9.80;6.40;;;;;;;8.94;47.83;100136.04;103506;1300;24182;-31
2022/03/09 10:13:38;;;;;;;15.50;6.60;;;;;;;8.78;45.27;100135.25;103470;1300;24304;-28
2022/03/09 10:16:11;;;;;;;7.60;5.50;;;;;;;9.16;45.61;100134.39;103532;1300;24334;-24
2022/03/09 10:18:38;;;;;;;10.80;7.50;;;;;;;8.05;47.03;100135.13;103579;1300;24319;-28
2022/03/09 10:21:09;;;;;;;11.30;8.30;;;;;;;8.77;47.24;100139.69;103445;1300;24173;-28
2022/03/09 10:23:49;;;;;;;5.80;4.80;;;;;;;9.56;46.22;100130.33;103563;1300;22503;-25
2022/03/09 10:26:15;;;;;;;9.60;6.70;;;;;;;9.96;45.20;100128.04;103562;1300;24374;-24
2022/03/09 10:28:53;;;;;;;15.80;6.80;;;;;;;9.90;46.17;100127.66;103490;1300;24262;-28
2022/03/09 10:31:26;;;;;;;23.40;6.60;;;;;;;9.89;44.66;100128.86;103524;1300;24446;-24
2022/03/09 10:34:04;;;;;;;8.40;5.90;;;;;;;9.34;43.67;100130.40;103536;1300;23100;-24
2022/03/09 10:36:30;;;;;;;9.60;7.30;;;;;;;9.49;44.66;100127.45;103595;1300;24676;-28
2022/03/09 10:39:10;;;;;;;11.90;7.20;;;;;;;9.86;44.53;100126.88;103534;1300;24341;-25
2022/03/09 10:41:36;;;;;;;7.30;5.20;;;;;;;10.08;44.45;100128.48;103560;1300;24319;-25
2022/03/09 10:44:01;;;;;;;7.70;6.40;;;;;;;9.64;43.94;100124.56;103599;1300;24211;-24
2022/03/09 10:46:27;;;;;;;10.60;6.30;;;;;;;10.24;44.30;100117.87;103564;1300;22606;-24
2022/03/09 10:48:57;;;;;;;9.80;6.80;;;;;;;10.34;44.05;100114.05;103622;1300;24365;-27
2022/03/09 10:51:26;;;;;;;7.50;5.50;;;;;;;10.92;41.92;100113.48;103597;1300;24226;-28
2022/03/09 10:53:52;;;;;;;10.60;8.60;;;;;;;10.90;42.60;100110.35;103556;1300;24332;-25
2022/03/09 10:56:20;;;;;;;15.60;7.40;;;;;;;10.56;44.19;100110.63;103628;1300;24373;-30
2022/03/09 10:58:46;;;;;;;9.80;5.80;;;;;;;10.75;43.42;100110.05;103620;1300;22499;-29
2022/03/09 11:01:16;;;;;;;7.70;6.80;;;;;;;10.52;43.54;100106.98;103649;1297;24311;-25
2022/03/09 11:03:43;;;;;;;12.40;7.20;;;;;;;10.40;42.49;100108.05;103571;1300;24319;-29
2022/03/09 11:06:10;;;;;;;12.10;7.80;;;;;;;10.01;42.51;100101.90;103687;1300;24471;-25